sensor_id;sensor_type;location;lat;lon;timestamp;pressure;altitude;pressure_sealevel;temperature;humidity
48041;BME280;33815;48.386;11.738;2023-05-23T00:01:03;96158.66;;;13.82;100.00
48041;BME280;33815;48.386;11.738;2023-05-23T00:03:32;96136.41;;;13.63;100.00
48041;BME280;33815;48.386;11.738;2023-05-23T00:05:58;96155.84;;;13.69;100.00
48041;BME280;33815;48.386;11.738;2023-05-23T00:08:24;96145.00;;;13.57;100.00
48041;BME280;33815;48.386;11.738;2023-05-23T00:10:49;96167.03;;;13.63;100.00
48041;BME280;33815;48.386;11.738;2023-05-23T00:13:15;96148.72;;;13.63;100.00
48041;BME280;33815;48.386;11.738;2023-05-23T00:15:41;96155.22;;;13.82;100.00
48041;BME280;33815;48.386;11.738;2023-05-23T00:18:06;96146.81;;;13.86;100.00
48041;BME280;33815;48.386;11.738;2023-05-23T00:20:40;96157.06;;;14.18;100.00
48041;BME280;33815;48.386;11.738;2023-05-23T00:23:07;96164.59;;;14.21;100.00
48041;BME280;33815;48.386;11.738;2023-05-23T00:25:33;96158.09;;;14.17;100.00
48041;BME280;33815;48.386;11.738;2023-05-23T00:28:00;96162.50;;;14.16;100.00
48041;BME280;33815;48.386;11.738;2023-05-23T00:30:26;96158.16;;;14.23;100.00
48041;BME280;33815;48.386;11.738;2023-05-23T00:32:52;96147.78;;;14.15;100.00
48041;BME280;33815;48.386;11.738;2023-05-23T00:35:19;96145.50;;;14.27;100.00
48041;BME280;33815;48.386;11.738;2023-05-23T00:37:44;96161.22;;;14.42;100.00
48041;BME280;33815;48.386;11.738;2023-05-23T00:40:10;96152.69;;;14.40;100.00
48041;BME280;33815;48.386;11.738;2023-05-23T00:42:35;96160.97;;;14.59;100.00
48041;BME280;33815;48.386;11.738;2023-05-23T00:45:01;96169.38;;;14.69;100.00
48041;BME280;33815;48.386;11.738;2023-05-23T00:47:26;96166.00;;;14.60;100.00
48041;BME280;33815;48.386;11.738;2023-05-23T00:49:52;96169.56;;;14.67;100.00
48041;BME280;33815;48.386;11.738;2023-05-23T00:52:17;96176.81;;;14.65;100.00
48041;BME280;33815;48.386;11.738;2023-05-23T00:54:42;96168.78;;;14.88;100.00
48041;BME280;33815;48.386;11.738;2023-05-23T00:57:08;96156.16;;;14.77;100.00
48041;BME280;33815;48.386;11.738;2023-05-23T00:59:34;96178.97;;;14.98;100.00
48041;BME280;33815;48.386;11.738;2023-05-23T01:02:00;96170.31;;;15.04;100.00
48041;BME280;33815;48.386;11.738;2023-05-23T01:04:27;96162.75;;;14.95;100.00
48041;BME280;33815;48.386;11.738;2023-05-23T01:06:56;96158.63;;;15.07;100.00
48041;BME280;33815;48.386;11.738;2023-05-23T01:09:22;96172.34;;;15.02;100.00
48041;BME280;33815;48.386;11.738;2023-05-23T01:12:01;96165.38;;;14.95;100.00
48041;BME280;33815;48.386;11.738;2023-05-23T01:14:34;96163.34;;;14.90;100.00
48041;BME280;33815;48.386;11.738;2023-05-23T01:17:12;96159.19;;;14.81;100.00
48041;BME280;33815;48.386;11.738;2023-05-23T01:19:48;96177.38;;;14.82;100.00
48041;BME280;33815;48.386;11.738;2023-05-23T01:25:22;96174.88;;;14.74;100.00
48041;BME280;33815;48.386;11.738;2023-05-23T01:27:54;96173.25;;;14.73;100.00
48041;BME280;33815;48.386;11.738;2023-05-23T01:30:22;96178.84;;;14.70;100.00
48041;BME280;33815;48.386;11.738;2023-05-23T01:32:50;96177.63;;;14.66;100.00
48041;BME280;33815;48.386;11.738;2023-05-23T01:35:21;96175.69;;;14.60;100.00
48041;BME280;33815;48.386;11.738;2023-05-23T01:37:48;96178.88;;;14.55;100.00
48041;BME280;33815;48.386;11.738;2023-05-23T01:40:13;96188.81;;;14.60;100.00
48041;BME280;33815;48.386;11.738;2023-05-23T01:42:39;96184.84;;;14.49;100.00
48041;BME280;33815;48.386;11.738;2023-05-23T01:45:05;96191.53;;;14.51;100.00
48041;BME280;33815;48.386;11.738;2023-05-23T01:47:30;96192.56;;;14.50;100.00
48041;BME280;33815;48.386;11.738;2023-05-23T01:49:57;96190.47;;;14.46;100.00
48041;BME280;33815;48.386;11.738;2023-05-23T01:52:23;96188.78;;;14.38;100.00
48041;BME280;33815;48.386;11.738;2023-05-23T01:54:49;96178.53;;;14.43;100.00
48041;BME280;33815;48.386;11.738;2023-05-23T01:57:16;96194.69;;;14.62;100.00
48041;BME280;33815;48.386;11.738;2023-05-23T01:59:41;96196.69;;;14.60;100.00
48041;BME280;33815;48.386;11.738;2023-05-23T02:02:07;96200.28;;;14.73;100.00
48041;BME280;33815;48.386;11.738;2023-05-23T02:04:32;96187.09;;;14.67;100.00
48041;BME280;33815;48.386;11.738;2023-05-23T02:06:58;96206.34;;;14.74;100.00
48041;BME280;33815;48.386;11.738;2023-05-23T02:09:23;96200.91;;;14.76;100.00
48041;BME280;33815;48.386;11.738;2023-05-23T02:11:48;96206.41;;;14.81;100.00
48041;BME280;33815;48.386;11.738;2023-05-23T02:14:13;96197.75;;;14.80;100.00
48041;BME280;33815;48.386;11.738;2023-05-23T02:16:39;96189.03;;;14.80;100.00
48041;BME280;33815;48.386;11.738;2023-05-23T02:19:04;96196.56;;;14.83;100.00
48041;BME280;33815;48.386;11.738;2023-05-23T02:21:29;96205.91;;;14.70;100.00
48041;BME280;33815;48.386;11.738;2023-05-23T02:23:55;96201.84;;;14.68;100.00
48041;BME280;33815;48.386;11.738;2023-05-23T02:26:21;96193.38;;;14.66;100.00
48041;BME280;33815;48.386;11.738;2023-05-23T02:28:46;96191.34;;;14.68;100.00
48041;BME280;33815;48.386;11.738;2023-05-23T02:31:11;96196.16;;;14.64;100.00
48041;BME280;33815;48.386;11.738;2023-05-23T02:33:36;96198.88;;;14.56;100.00
48041;BME280;33815;48.386;11.738;2023-05-23T02:36:02;96210.91;;;14.50;100.00
48041;BME280;33815;48.386;11.738;2023-05-23T02:38:27;96204.84;;;14.35;100.00
48041;BME280;33815;48.386;11.738;2023-05-23T02:40:54;96207.59;;;14.27;100.00
48041;BME280;33815;48.386;11.738;2023-05-23T02:43:21;96212.09;;;14.18;100.00
48041;BME280;33815;48.386;11.738;2023-05-23T02:45:47;96185.66;;;13.98;100.00
48041;BME280;33815;48.386;11.738;2023-05-23T02:48:12;96203.44;;;14.02;100.00
48041;BME280;33815;48.386;11.738;2023-05-23T02:50:37;96200.75;;;13.96;100.00
48041;BME280;33815;48.386;11.738;2023-05-23T02:53:02;96210.84;;;13.84;100.00
48041;BME280;33815;48.386;11.738;2023-05-23T02:55:28;96214.38;;;13.76;100.00
48041;BME280;33815;48.386;11.738;2023-05-23T02:57:53;96200.09;;;13.64;100.00
48041;BME280;33815;48.386;11.738;2023-05-23T03:00:19;96205.03;;;13.59;100.00
48041;BME280;33815;48.386;11.738;2023-05-23T03:02:44;96215.06;;;13.55;100.00
48041;BME280;33815;48.386;11.738;2023-05-23T03:05:10;96216.25;;;13.52;100.00
48041;BME280;33815;48.386;11.738;2023-05-23T03:07:35;96230.25;;;13.60;100.00
48041;BME280;33815;48.386;11.738;2023-05-23T03:10:00;96229.69;;;13.64;100.00
48041;BME280;33815;48.386;11.738;2023-05-23T03:12:29;96216.84;;;13.54;100.00
48041;BME280;33815;48.386;11.738;2023-05-23T03:14:54;96217.59;;;13.48;100.00
48041;BME280;33815;48.386;11.738;2023-05-23T03:17:19;96223.06;;;13.53;100.00
48041;BME280;33815;48.386;11.738;2023-05-23T03:19:45;96200.50;;;13.38;100.00
48041;BME280;33815;48.386;11.738;2023-05-23T03:22:10;96212.72;;;13.45;100.00
48041;BME280;33815;48.386;11.738;2023-05-23T03:24:35;96217.66;;;13.40;100.00
48041;BME280;33815;48.386;11.738;2023-05-23T03:27:00;96213.75;;;13.36;100.00
48041;BME280;33815;48.386;11.738;2023-05-23T03:29:26;96218.47;;;13.32;100.00
48041;BME280;33815;48.386;11.738;2023-05-23T03:31:51;96206.13;;;13.26;100.00
48041;BME280;33815;48.386;11.738;2023-05-23T03:34:16;96208.09;;;13.24;100.00
48041;BME280;33815;48.386;11.738;2023-05-23T03:36:42;96216.28;;;13.21;100.00
48041;BME280;33815;48.386;11.738;2023-05-23T03:39:07;96217.81;;;13.15;100.00
48041;BME280;33815;48.386;11.738;2023-05-23T03:41:32;96208.69;;;13.11;100.00
48041;BME280;33815;48.386;11.738;2023-05-23T03:43:57;96221.06;;;13.17;100.00
48041;BME280;33815;48.386;11.738;2023-05-23T03:46:23;96215.72;;;13.11;100.00
48041;BME280;33815;48.386;11.738;2023-05-23T03:48:48;96210.50;;;13.11;100.00
48041;BME280;33815;48.386;11.738;2023-05-23T03:51:13;96223.28;;;13.29;100.00
48041;BME280;33815;48.386;11.738;2023-05-23T03:53:39;96220.63;;;13.37;100.00
48041;BME280;33815;48.386;11.738;2023-05-23T03:56:04;96220.84;;;13.27;100.00
48041;BME280;33815;48.386;11.738;2023-05-23T03:58:29;96233.38;;;13.32;100.00
48041;BME280;33815;48.386;11.738;2023-05-23T04:00:55;96227.94;;;13.18;100.00
48041;BME280;33815;48.386;11.738;2023-05-23T04:03:20;96239.34;;;13.26;100.00
48041;BME280;33815;48.386;11.738;2023-05-23T04:05:45;96239.59;;;13.31;100.00
48041;BME280;33815;48.386;11.738;2023-05-23T04:08:11;96231.66;;;13.24;100.00
48041;BME280;33815;48.386;11.738;2023-05-23T04:10:37;96247.00;;;13.27;100.00
48041;BME280;33815;48.386;11.738;2023-05-23T04:13:02;96241.78;;;13.27;100.00
48041;BME280;33815;48.386;11.738;2023-05-23T04:15:27;96242.56;;;13.28;100.00
48041;BME280;33815;48.386;11.738;2023-05-23T04:17:53;96245.50;;;13.33;100.00
48041;BME280;33815;48.386;11.738;2023-05-23T04:20:18;96258.50;;;13.49;100.00
48041;BME280;33815;48.386;11.738;2023-05-23T04:22:43;96252.16;;;13.59;100.00
48041;BME280;33815;48.386;11.738;2023-05-23T04:25:09;96250.16;;;13.46;100.00
48041;BME280;33815;48.386;11.738;2023-05-23T04:27:34;96244.44;;;13.42;100.00
48041;BME280;33815;48.386;11.738;2023-05-23T04:29:59;96255.16;;;13.56;100.00
48041;BME280;33815;48.386;11.738;2023-05-23T04:32:25;96259.34;;;13.65;100.00
48041;BME280;33815;48.386;11.738;2023-05-23T04:34:50;96267.09;;;13.73;100.00
48041;BME280;33815;48.386;11.738;2023-05-23T04:37:16;96248.31;;;13.69;100.00
48041;BME280;33815;48.386;11.738;2023-05-23T04:39:46;96256.72;;;13.80;100.00
48041;BME280;33815;48.386;11.738;2023-05-23T04:42:12;96268.72;;;13.74;100.00
48041;BME280;33815;48.386;11.738;2023-05-23T04:44:37;96257.56;;;13.80;100.00
48041;BME280;33815;48.386;11.738;2023-05-23T04:47:02;96270.56;;;13.88;100.00
48041;BME280;33815;48.386;11.738;2023-05-23T04:49:28;96271.03;;;13.92;100.00
48041;BME280;33815;48.386;11.738;2023-05-23T04:51:53;96270.41;;;13.90;100.00
48041;BME280;33815;48.386;11.738;2023-05-23T04:54:18;96264.72;;;14.01;100.00
48041;BME280;33815;48.386;11.738;2023-05-23T04:56:43;96266.44;;;14.09;100.00
48041;BME280;33815;48.386;11.738;2023-05-23T04:59:09;96254.25;;;14.01;100.00
48041;BME280;33815;48.386;11.738;2023-05-23T05:01:35;96261.00;;;14.11;100.00
48041;BME280;33815;48.386;11.738;2023-05-23T05:04:04;96268.69;;;14.27;100.00
48041;BME280;33815;48.386;11.738;2023-05-23T05:06:29;96267.91;;;14.27;100.00
48041;BME280;33815;48.386;11.738;2023-05-23T05:08:55;96267.34;;;14.31;100.00
48041;BME280;33815;48.386;11.738;2023-05-23T05:11:20;96275.91;;;14.40;100.00
48041;BME280;33815;48.386;11.738;2023-05-23T05:13:46;96272.84;;;14.51;100.00
48041;BME280;33815;48.386;11.738;2023-05-23T05:16:11;96267.78;;;14.50;100.00
48041;BME280;33815;48.386;11.738;2023-05-23T05:18:37;96285.22;;;14.57;100.00
48041;BME280;33815;48.386;11.738;2023-05-23T05:21:03;96285.50;;;14.63;100.00
48041;BME280;33815;48.386;11.738;2023-05-23T05:23:30;96287.78;;;14.66;100.00
48041;BME280;33815;48.386;11.738;2023-05-23T05:25:55;96296.78;;;14.78;100.00
48041;BME280;33815;48.386;11.738;2023-05-23T05:28:21;96280.44;;;14.76;100.00
48041;BME280;33815;48.386;11.738;2023-05-23T05:30:47;96290.91;;;14.91;100.00
48041;BME280;33815;48.386;11.738;2023-05-23T05:33:13;96287.84;;;15.09;100.00
48041;BME280;33815;48.386;11.738;2023-05-23T05:35:38;96278.91;;;15.03;100.00
48041;BME280;33815;48.386;11.738;2023-05-23T05:38:04;96297.63;;;15.37;100.00
48041;BME280;33815;48.386;11.738;2023-05-23T05:40:31;96294.22;;;15.36;100.00
48041;BME280;33815;48.386;11.738;2023-05-23T05:42:56;96287.06;;;15.52;100.00
48041;BME280;33815;48.386;11.738;2023-05-23T05:45:22;96299.28;;;15.81;100.00
48041;BME280;33815;48.386;11.738;2023-05-23T05:47:47;96283.38;;;15.89;100.00
48041;BME280;33815;48.386;11.738;2023-05-23T05:50:12;96297.44;;;16.03;100.00
48041;BME280;33815;48.386;11.738;2023-05-23T05:52:38;96297.09;;;16.13;100.00
48041;BME280;33815;48.386;11.738;2023-05-23T05:55:10;96300.94;;;16.17;100.00
48041;BME280;33815;48.386;11.738;2023-05-23T05:57:36;96303.41;;;16.19;100.00
48041;BME280;33815;48.386;11.738;2023-05-23T06:00:04;96300.13;;;16.17;100.00
48041;BME280;33815;48.386;11.738;2023-05-23T06:02:36;96304.81;;;16.21;100.00
48041;BME280;33815;48.386;11.738;2023-05-23T06:05:01;96293.44;;;16.14;100.00
48041;BME280;33815;48.386;11.738;2023-05-23T06:07:26;96292.81;;;16.12;100.00
48041;BME280;33815;48.386;11.738;2023-05-23T06:09:51;96314.72;;;16.19;100.00
48041;BME280;33815;48.386;11.738;2023-05-23T06:12:17;96312.19;;;16.04;100.00
48041;BME280;33815;48.386;11.738;2023-05-23T06:14:42;96311.38;;;16.04;100.00
48041;BME280;33815;48.386;11.738;2023-05-23T06:17:07;96301.50;;;16.13;100.00
48041;BME280;33815;48.386;11.738;2023-05-23T06:19:33;96307.28;;;16.30;100.00
48041;BME280;33815;48.386;11.738;2023-05-23T06:21:59;96300.03;;;16.32;100.00
48041;BME280;33815;48.386;11.738;2023-05-23T06:24:24;96316.97;;;16.57;100.00
48041;BME280;33815;48.386;11.738;2023-05-23T06:26:49;96319.88;;;16.76;100.00
48041;BME280;33815;48.386;11.738;2023-05-23T06:29:14;96302.63;;;17.02;100.00
48041;BME280;33815;48.386;11.738;2023-05-23T06:31:40;96307.97;;;17.35;100.00
48041;BME280;33815;48.386;11.738;2023-05-23T06:34:05;96301.31;;;17.59;100.00
48041;BME280;33815;48.386;11.738;2023-05-23T06:36:30;96302.34;;;17.72;100.00
48041;BME280;33815;48.386;11.738;2023-05-23T06:38:55;96299.91;;;17.70;100.00
48041;BME280;33815;48.386;11.738;2023-05-23T06:41:21;96314.47;;;17.73;100.00
48041;BME280;33815;48.386;11.738;2023-05-23T06:43:46;96324.63;;;17.62;100.00
48041;BME280;33815;48.386;11.738;2023-05-23T06:46:12;96310.03;;;17.67;100.00
48041;BME280;33815;48.386;11.738;2023-05-23T06:48:37;96325.84;;;17.67;100.00
48041;BME280;33815;48.386;11.738;2023-05-23T06:51:02;96310.44;;;17.77;100.00
48041;BME280;33815;48.386;11.738;2023-05-23T06:53:27;96321.41;;;17.87;100.00
48041;BME280;33815;48.386;11.738;2023-05-23T06:55:53;96318.16;;;18.05;100.00
48041;BME280;33815;48.386;11.738;2023-05-23T06:58:20;96325.06;;;18.00;100.00
48041;BME280;33815;48.386;11.738;2023-05-23T07:00:46;96324.28;;;18.12;100.00
48041;BME280;33815;48.386;11.738;2023-05-23T07:03:11;96325.84;;;18.40;100.00
48041;BME280;33815;48.386;11.738;2023-05-23T07:05:36;96332.09;;;18.53;97.48
48041;BME280;33815;48.386;11.738;2023-05-23T07:08:01;96322.59;;;18.45;96.83
48041;BME280;33815;48.386;11.738;2023-05-23T07:10:27;96325.19;;;18.65;95.96
48041;BME280;33815;48.386;11.738;2023-05-23T07:12:52;96332.50;;;19.22;93.66
48041;BME280;33815;48.386;11.738;2023-05-23T07:15:17;96328.78;;;19.36;91.37
48041;BME280;33815;48.386;11.738;2023-05-23T07:17:43;96338.78;;;19.59;91.39
48041;BME280;33815;48.386;11.738;2023-05-23T07:20:08;96332.63;;;19.40;86.82
48041;BME280;33815;48.386;11.738;2023-05-23T07:22:34;96317.31;;;19.49;87.63
48041;BME280;33815;48.386;11.738;2023-05-23T07:24:59;96319.16;;;19.80;88.92
48041;BME280;33815;48.386;11.738;2023-05-23T07:27:28;96320.47;;;19.96;86.98
48041;BME280;33815;48.386;11.738;2023-05-23T07:29:53;96325.78;;;20.15;85.88
48041;BME280;33815;48.386;11.738;2023-05-23T07:32:18;96334.94;;;19.94;84.11
48041;BME280;33815;48.386;11.738;2023-05-23T07:34:43;96321.66;;;19.68;86.14
48041;BME280;33815;48.386;11.738;2023-05-23T07:37:09;96316.81;;;19.65;87.13
48041;BME280;33815;48.386;11.738;2023-05-23T07:39:34;96337.41;;;19.89;85.94
48041;BME280;33815;48.386;11.738;2023-05-23T07:41:59;96323.81;;;19.78;84.89
48041;BME280;33815;48.386;11.738;2023-05-23T07:44:24;96332.66;;;19.97;85.15
48041;BME280;33815;48.386;11.738;2023-05-23T07:46:50;96336.69;;;20.00;83.80
48041;BME280;33815;48.386;11.738;2023-05-23T07:49:15;96330.06;;;20.16;84.73
48041;BME280;33815;48.386;11.738;2023-05-23T07:51:40;96336.16;;;21.16;81.46
48041;BME280;33815;48.386;11.738;2023-05-23T07:54:06;96330.00;;;21.03;79.18
48041;BME280;33815;48.386;11.738;2023-05-23T07:56:31;96337.63;;;21.12;78.59
48041;BME280;33815;48.386;11.738;2023-05-23T07:58:56;96330.28;;;20.95;79.02
48041;BME280;33815;48.386;11.738;2023-05-23T08:01:21;96334.44;;;20.47;81.23
48041;BME280;33815;48.386;11.738;2023-05-23T08:03:48;96332.31;;;20.37;83.12
48041;BME280;33815;48.386;11.738;2023-05-23T08:06:14;96342.50;;;20.59;80.33
48041;BME280;33815;48.386;11.738;2023-05-23T08:08:39;96331.34;;;20.32;80.08
48041;BME280;33815;48.386;11.738;2023-05-23T08:11:05;96334.22;;;20.49;82.81
48041;BME280;33815;48.386;11.738;2023-05-23T08:13:30;96330.38;;;20.70;83.20
48041;BME280;33815;48.386;11.738;2023-05-23T08:15:55;96335.88;;;20.87;78.95
48041;BME280;33815;48.386;11.738;2023-05-23T08:18:20;96334.34;;;20.98;77.89
48041;BME280;33815;48.386;11.738;2023-05-23T08:20:46;96350.13;;;21.23;76.99
48041;BME280;33815;48.386;11.738;2023-05-23T08:23:11;96349.69;;;21.87;78.93
48041;BME280;33815;48.386;11.738;2023-05-23T08:25:37;96334.06;;;22.45;71.08
48041;BME280;33815;48.386;11.738;2023-05-23T08:28:02;96342.44;;;21.94;70.01
48041;BME280;33815;48.386;11.738;2023-05-23T08:30:28;96344.16;;;21.28;72.35
48041;BME280;33815;48.386;11.738;2023-05-23T08:32:56;96363.56;;;21.10;73.61
48041;BME280;33815;48.386;11.738;2023-05-23T08:35:22;96353.69;;;21.17;72.62
48041;BME280;33815;48.386;11.738;2023-05-23T08:37:47;96361.94;;;21.09;74.10
48041;BME280;33815;48.386;11.738;2023-05-23T08:40:18;96372.84;;;20.82;74.28
48041;BME280;33815;48.386;11.738;2023-05-23T08:42:46;96358.78;;;20.56;75.98
48041;BME280;33815;48.386;11.738;2023-05-23T08:45:11;96369.66;;;20.73;78.88
48041;BME280;33815;48.386;11.738;2023-05-23T08:47:36;96367.78;;;20.55;78.12
48041;BME280;33815;48.386;11.738;2023-05-23T08:50:06;96369.53;;;20.61;79.43
48041;BME280;33815;48.386;11.738;2023-05-23T08:52:32;96352.78;;;20.67;78.33
48041;BME280;33815;48.386;11.738;2023-05-23T08:55:00;96366.78;;;21.12;79.12
48041;BME280;33815;48.386;11.738;2023-05-23T08:57:26;96368.84;;;21.28;73.52
48041;BME280;33815;48.386;11.738;2023-05-23T08:59:52;96365.22;;;21.04;74.18
48041;BME280;33815;48.386;11.738;2023-05-23T09:02:18;96367.31;;;20.83;75.85
48041;BME280;33815;48.386;11.738;2023-05-23T09:04:44;96373.94;;;21.11;74.78
48041;BME280;33815;48.386;11.738;2023-05-23T09:07:10;96373.50;;;20.96;75.47
48041;BME280;33815;48.386;11.738;2023-05-23T09:09:36;96376.28;;;21.01;76.55
48041;BME280;33815;48.386;11.738;2023-05-23T09:12:02;96379.75;;;21.20;75.74
48041;BME280;33815;48.386;11.738;2023-05-23T09:14:27;96359.47;;;21.75;73.40
48041;BME280;33815;48.386;11.738;2023-05-23T09:17:00;96376.38;;;22.16;71.11
48041;BME280;33815;48.386;11.738;2023-05-23T09:19:25;96374.75;;;21.91;70.41
48041;BME280;33815;48.386;11.738;2023-05-23T09:21:53;96370.63;;;21.65;71.54
48041;BME280;33815;48.386;11.738;2023-05-23T09:24:18;96364.69;;;21.81;70.27
48041;BME280;33815;48.386;11.738;2023-05-23T09:26:47;96363.16;;;21.73;70.16
48041;BME280;33815;48.386;11.738;2023-05-23T09:29:13;96373.72;;;21.43;71.05
48041;BME280;33815;48.386;11.738;2023-05-23T09:31:38;96374.66;;;21.49;69.63
48041;BME280;33815;48.386;11.738;2023-05-23T09:34:03;96360.50;;;21.85;70.19
48041;BME280;33815;48.386;11.738;2023-05-23T09:36:30;96375.47;;;22.22;68.62
48041;BME280;33815;48.386;11.738;2023-05-23T09:39:01;96382.72;;;22.03;68.31
48041;BME280;33815;48.386;11.738;2023-05-23T09:41:29;96380.63;;;22.05;68.51
48041;BME280;33815;48.386;11.738;2023-05-23T09:43:55;96380.63;;;21.93;69.37
48041;BME280;33815;48.386;11.738;2023-05-23T09:46:21;96385.38;;;21.72;69.97
48041;BME280;33815;48.386;11.738;2023-05-23T09:48:50;96398.00;;;21.77;69.48
48041;BME280;33815;48.386;11.738;2023-05-23T09:51:18;96379.78;;;22.35;72.01
48041;BME280;33815;48.386;11.738;2023-05-23T09:53:44;96384.28;;;22.34;67.23
48041;BME280;33815;48.386;11.738;2023-05-23T09:56:10;96379.66;;;21.76;67.51
48041;BME280;33815;48.386;11.738;2023-05-23T09:58:36;96386.34;;;21.29;68.65
48041;BME280;33815;48.386;11.738;2023-05-23T10:01:06;96392.25;;;20.76;69.69
48041;BME280;33815;48.386;11.738;2023-05-23T10:03:52;96380.16;;;20.36;71.03
48041;BME280;33815;48.386;11.738;2023-05-23T10:06:28;96389.22;;;21.09;72.07
48041;BME280;33815;48.386;11.738;2023-05-23T10:08:58;96384.50;;;21.30;70.42
48041;BME280;33815;48.386;11.738;2023-05-23T10:14:00;96390.13;;;21.03;71.69
48041;BME280;33815;48.386;11.738;2023-05-23T10:16:33;96385.78;;;20.90;70.86
48041;BME280;33815;48.386;11.738;2023-05-23T10:19:23;96387.19;;;21.11;69.96
48041;BME280;33815;48.386;11.738;2023-05-23T10:21:56;96382.66;;;21.79;68.41
48041;BME280;33815;48.386;11.738;2023-05-23T10:24:23;96376.84;;;22.13;66.21
48041;BME280;33815;48.386;11.738;2023-05-23T10:26:49;96362.13;;;22.64;67.13
48041;BME280;33815;48.386;11.738;2023-05-23T10:29:14;96354.91;;;22.76;62.68
48041;BME280;33815;48.386;11.738;2023-05-23T10:31:39;96350.41;;;22.89;63.36
48041;BME280;33815;48.386;11.738;2023-05-23T10:34:36;96349.47;;;22.95;64.22
48041;BME280;33815;48.386;11.738;2023-05-23T10:37:04;96356.38;;;22.96;62.23
48041;BME280;33815;48.386;11.738;2023-05-23T10:39:41;96354.47;;;22.68;61.36
48041;BME280;33815;48.386;11.738;2023-05-23T10:42:14;96361.47;;;22.15;62.65
48041;BME280;33815;48.386;11.738;2023-05-23T10:44:40;96366.41;;;21.76;63.60
48041;BME280;33815;48.386;11.738;2023-05-23T10:47:06;96337.50;;;22.21;61.95
48041;BME280;33815;48.386;11.738;2023-05-23T10:52:07;96340.84;;;22.88;60.96
48041;BME280;33815;48.386;11.738;2023-05-23T10:54:41;96354.84;;;23.24;64.26
48041;BME280;33815;48.386;11.738;2023-05-23T10:57:08;96355.28;;;23.90;64.46
48041;BME280;33815;48.386;11.738;2023-05-23T10:59:36;96342.88;;;23.67;56.48
48041;BME280;33815;48.386;11.738;2023-05-23T11:02:02;96340.97;;;23.51;56.83
48041;BME280;33815;48.386;11.738;2023-05-23T11:04:28;96326.25;;;23.31;55.79
48041;BME280;33815;48.386;11.738;2023-05-23T11:06:54;96342.72;;;22.52;58.78
48041;BME280;33815;48.386;11.738;2023-05-23T11:09:20;96341.31;;;22.14;61.22
48041;BME280;33815;48.386;11.738;2023-05-23T11:12:05;96330.66;;;22.85;64.28
48041;BME280;33815;48.386;11.738;2023-05-23T11:16:58;96333.97;;;23.44;58.21
48041;BME280;33815;48.386;11.738;2023-05-23T11:19:25;96332.56;;;23.71;58.91
48041;BME280;33815;48.386;11.738;2023-05-23T11:21:56;96318.41;;;23.53;56.78
48041;BME280;33815;48.386;11.738;2023-05-23T11:24:21;96332.53;;;23.25;55.13
48041;BME280;33815;48.386;11.738;2023-05-23T11:29:16;96326.78;;;22.16;59.23
48041;BME280;33815;48.386;11.738;2023-05-23T11:31:41;96335.31;;;22.54;59.73
48041;BME280;33815;48.386;11.738;2023-05-23T11:34:07;96314.19;;;23.12;57.56
48041;BME280;33815;48.386;11.738;2023-05-23T11:36:32;96305.72;;;23.26;56.94
48041;BME280;33815;48.386;11.738;2023-05-23T11:39:01;96322.72;;;23.71;54.99
48041;BME280;33815;48.386;11.738;2023-05-23T11:41:27;96311.03;;;23.26;56.07
48041;BME280;33815;48.386;11.738;2023-05-23T11:43:52;96319.69;;;23.97;51.63
48041;BME280;33815;48.386;11.738;2023-05-23T11:46:18;96328.06;;;24.39;55.68
48041;BME280;33815;48.386;11.738;2023-05-23T11:48:47;96311.47;;;24.15;53.66
48041;BME280;33815;48.386;11.738;2023-05-23T11:51:13;96326.91;;;24.69;54.84
48041;BME280;33815;48.386;11.738;2023-05-23T11:53:39;96315.81;;;24.38;56.14
48041;BME280;33815;48.386;11.738;2023-05-23T11:56:05;96308.28;;;24.74;53.43
48041;BME280;33815;48.386;11.738;2023-05-23T11:58:35;96294.63;;;24.49;52.13
48041;BME280;33815;48.386;11.738;2023-05-23T12:01:09;96311.84;;;25.02;57.70
48041;BME280;33815;48.386;11.738;2023-05-23T12:03:44;96311.59;;;25.04;56.77
48041;BME280;33815;48.386;11.738;2023-05-23T12:06:13;96310.88;;;25.13;52.98
48041;BME280;33815;48.386;11.738;2023-05-23T12:08:39;96320.75;;;24.29;52.38
48041;BME280;33815;48.386;11.738;2023-05-23T12:11:04;96334.38;;;22.84;54.48
48041;BME280;33815;48.386;11.738;2023-05-23T12:13:30;96333.22;;;22.32;57.15
48041;BME280;33815;48.386;11.738;2023-05-23T12:15:56;96334.59;;;22.23;57.68
48041;BME280;33815;48.386;11.738;2023-05-23T12:18:24;96323.19;;;22.58;56.75
48041;BME280;33815;48.386;11.738;2023-05-23T12:20:51;96320.72;;;22.80;56.62
48041;BME280;33815;48.386;11.738;2023-05-23T12:23:20;96338.69;;;22.49;56.10
48041;BME280;33815;48.386;11.738;2023-05-23T12:25:50;96328.34;;;22.76;57.96
48041;BME280;33815;48.386;11.738;2023-05-23T12:28:16;96332.09;;;22.40;55.46
48041;BME280;33815;48.386;11.738;2023-05-23T12:30:42;96340.28;;;22.27;55.90
48041;BME280;33815;48.386;11.738;2023-05-23T12:33:08;96334.50;;;22.65;56.77
48041;BME280;33815;48.386;11.738;2023-05-23T12:35:33;96333.25;;;23.08;54.52
48041;BME280;33815;48.386;11.738;2023-05-23T12:37:59;96336.38;;;23.05;56.43
48041;BME280;33815;48.386;11.738;2023-05-23T12:40:24;96325.56;;;22.83;55.27
48041;BME280;33815;48.386;11.738;2023-05-23T12:42:51;96325.56;;;22.95;55.55
48041;BME280;33815;48.386;11.738;2023-05-23T12:45:21;96319.91;;;23.32;55.29
48041;BME280;33815;48.386;11.738;2023-05-23T12:47:47;96327.94;;;23.20;54.74
48041;BME280;33815;48.386;11.738;2023-05-23T12:50:12;96325.41;;;23.42;53.43
48041;BME280;33815;48.386;11.738;2023-05-23T12:52:38;96315.44;;;23.50;53.53
48041;BME280;33815;48.386;11.738;2023-05-23T12:55:05;96327.16;;;23.83;54.02